createdAt,value
2019-01-18T00:01:52.582Z,92.60
2019-01-18T00:04:22.163Z,92.30
2019-01-18T00:06:51.601Z,92.50
2019-01-18T00:09:21.064Z,92.80
2019-01-18T00:11:50.570Z,92.90
2019-01-18T00:14:19.909Z,93.00
2019-01-18T00:16:49.294Z,93.00
2019-01-18T00:19:18.776Z,93.20
2019-01-18T00:21:48.145Z,93.10
2019-01-18T00:24:17.513Z,93.20
2019-01-18T00:26:47.039Z,93.10
2019-01-18T00:29:16.353Z,93.00
2019-01-18T00:31:45.787Z,92.80
2019-01-18T00:34:15.182Z,92.70
2019-01-18T00:36:44.450Z,92.80
2019-01-18T00:39:13.845Z,92.80
2019-01-18T00:41:43.320Z,92.70
2019-01-18T00:44:12.850Z,92.50
2019-01-18T00:46:42.445Z,92.40
2019-01-18T00:49:12.000Z,92.20
2019-01-18T00:51:41.538Z,92.00
2019-01-18T00:54:11.076Z,91.80
2019-01-18T00:56:40.569Z,92.00
2019-01-18T00:59:09.973Z,91.90
2019-01-18T01:01:39.317Z,91.90
2019-01-18T01:04:08.652Z,91.80
2019-01-18T01:06:38.137Z,91.80
2019-01-18T01:09:07.978Z,91.90
2019-01-18T01:11:37.326Z,92.00
2019-01-18T01:14:06.919Z,92.10
2019-01-18T01:16:36.233Z,91.80
2019-01-18T01:19:05.617Z,91.90
2019-01-18T01:21:35.064Z,91.80
2019-01-18T01:24:04.755Z,92.10
2019-01-18T01:26:34.118Z,91.60
2019-01-18T01:29:03.434Z,91.70
2019-01-18T01:31:32.907Z,91.70
2019-01-18T01:34:02.226Z,91.50
2019-01-18T01:36:31.557Z,91.70
2019-01-18T01:39:00.901Z,91.80
2019-01-18T01:41:30.340Z,91.80
2019-01-18T01:43:59.714Z,91.70
2019-01-18T01:46:29.061Z,91.80
2019-01-18T01:48:58.350Z,91.80
2019-01-18T01:51:27.676Z,91.40
2019-01-18T01:53:57.061Z,91.50
2019-01-18T01:56:26.666Z,91.50
2019-01-18T01:58:56.119Z,91.50
2019-01-18T02:01:25.716Z,91.40
2019-01-18T02:03:55.294Z,91.10
2019-01-18T02:06:24.755Z,91.10
2019-01-18T02:08:54.011Z,91.10
2019-01-18T02:11:23.294Z,91.10
2019-01-18T02:13:52.631Z,91.30
2019-01-18T02:16:22.029Z,91.30
2019-01-18T02:18:51.559Z,91.70
2019-01-18T02:21:21.205Z,91.70
2019-01-18T02:23:50.680Z,91.70
2019-01-18T02:26:20.047Z,91.70
2019-01-18T02:28:49.596Z,91.60
2019-01-18T02:31:18.962Z,91.50
2019-01-18T02:33:48.305Z,91.70
2019-01-18T02:36:17.628Z,91.50
2019-01-18T02:38:47.028Z,91.80
2019-01-18T02:41:16.390Z,91.70
2019-01-18T02:43:45.975Z,91.40
2019-01-18T02:46:15.360Z,91.60
2019-01-18T02:48:44.627Z,91.40
2019-01-18T02:51:13.958Z,91.40
2019-01-18T02:53:43.328Z,91.50
2019-01-18T02:56:12.647Z,91.50
2019-01-18T02:58:41.969Z,91.10
2019-01-18T03:01:11.372Z,91.30
2019-01-18T03:03:40.731Z,91.70
2019-01-18T03:06:10.150Z,91.30
2019-01-18T03:08:39.927Z,91.20
2019-01-18T03:11:09.323Z,91.40
2019-01-18T03:13:38.629Z,91.40
2019-01-18T03:16:08.043Z,91.40
2019-01-18T03:18:37.525Z,91.60
2019-01-18T03:21:06.915Z,91.50
2019-01-18T03:23:36.250Z,91.60
2019-01-18T03:26:05.585Z,91.60
2019-01-18T03:28:34.860Z,91.70
2019-01-18T03:31:04.371Z,91.80
2019-01-18T03:33:33.783Z,91.70
2019-01-18T03:36:03.165Z,91.80
2019-01-18T03:38:32.506Z,91.70
2019-01-18T03:41:01.909Z,91.80
2019-01-18T03:43:31.305Z,92.10
2019-01-18T03:46:00.626Z,91.70
2019-01-18T03:48:29.886Z,91.90
2019-01-18T03:50:59.165Z,91.80
2019-01-18T03:53:28.579Z,91.90
2019-01-18T03:55:57.941Z,91.90
2019-01-18T03:58:27.326Z,91.70
2019-01-18T04:00:56.705Z,91.60
2019-01-18T04:03:26.156Z,91.70
2019-01-18T04:05:55.509Z,91.70
2019-01-18T04:08:24.870Z,91.70
2019-01-18T04:10:54.396Z,91.90
2019-01-18T04:13:23.737Z,92.00
2019-01-18T04:15:53.141Z,91.80
2019-01-18T04:18:22.666Z,91.50
2019-01-18T04:20:52.518Z,91.30
2019-01-18T04:23:21.912Z,91.00
2019-01-18T04:25:51.183Z,91.10
2019-01-18T04:28:20.794Z,90.80
2019-01-18T04:30:50.416Z,91.20
2019-01-18T04:33:19.788Z,91.20
2019-01-18T04:35:49.333Z,91.20
2019-01-18T04:38:18.936Z,91.10
2019-01-18T04:40:48.347Z,91.10
2019-01-18T04:43:17.662Z,90.90
2019-01-18T04:45:47.046Z,90.90
2019-01-18T04:48:16.498Z,90.90
2019-01-18T04:50:45.898Z,90.90
2019-01-18T04:53:15.205Z,90.70
2019-01-18T04:55:44.584Z,90.70
2019-01-18T04:58:13.962Z,90.50
2019-01-18T05:00:43.304Z,90.70
2019-01-18T05:03:12.683Z,90.80
2019-01-18T05:05:42.052Z,90.50
2019-01-18T05:08:11.616Z,90.30
2019-01-18T05:10:41.026Z,90.30
2019-01-18T05:13:10.442Z,90.20
2019-01-18T05:15:39.762Z,89.60
2019-01-18T05:18:09.288Z,89.30
2019-01-18T05:20:38.720Z,89.50
2019-01-18T05:23:08.228Z,89.80
2019-01-18T05:25:37.542Z,90.20
2019-01-18T05:28:07.094Z,90.60
2019-01-18T05:30:36.454Z,90.80
2019-01-18T05:33:05.915Z,91.00
2019-01-18T05:35:35.276Z,91.10
2019-01-18T05:38:04.648Z,91.20
2019-01-18T05:40:33.932Z,91.30
2019-01-18T05:43:03.276Z,91.50
2019-01-18T05:45:32.664Z,91.60
2019-01-18T05:48:01.976Z,91.70
2019-01-18T05:50:31.622Z,91.70
2019-01-18T05:53:05.332Z,91.80
2019-01-18T05:55:34.778Z,91.80
2019-01-18T05:58:04.433Z,91.70
2019-01-18T06:00:59.066Z,91.70
2019-01-18T06:03:28.419Z,91.90
2019-01-18T06:05:57.786Z,91.90
2019-01-18T06:08:27.169Z,91.90
2019-01-18T06:10:56.771Z,91.90
2019-01-18T06:13:26.166Z,92.00
2019-01-18T06:15:55.730Z,92.00
2019-01-18T06:18:25.107Z,92.00
2019-01-18T06:20:54.664Z,92.00
2019-01-18T06:23:24.081Z,92.00
2019-01-18T06:25:53.437Z,92.00
2019-01-18T06:28:22.806Z,92.00
2019-01-18T06:30:52.253Z,92.10
2019-01-18T06:33:21.770Z,92.00
2019-01-18T06:35:51.174Z,92.00
2019-01-18T06:38:20.533Z,92.00
2019-01-18T06:40:50.993Z,92.00
2019-01-18T06:43:20.696Z,92.00
2019-01-18T06:45:50.397Z,91.90
2019-01-18T06:48:22.221Z,92.10
2019-01-18T06:50:51.565Z,92.10
2019-01-18T06:53:20.966Z,92.20
2019-01-18T06:55:50.379Z,92.20
2019-01-18T06:58:19.683Z,92.20
2019-01-18T07:00:49.386Z,92.20
2019-01-18T07:03:18.701Z,92.20
2019-01-18T07:05:48.071Z,92.20
2019-01-18T07:08:17.432Z,92.20
2019-01-18T07:10:46.773Z,92.20
2019-01-18T07:13:16.165Z,92.30
2019-01-18T07:15:45.545Z,92.40
2019-01-18T07:18:14.934Z,92.40
2019-01-18T07:20:44.325Z,92.40
2019-01-18T07:23:13.697Z,92.40
2019-01-18T07:25:43.077Z,92.40
2019-01-18T07:28:12.437Z,92.20
2019-01-18T07:30:43.302Z,92.30
2019-01-18T07:33:14.265Z,92.30
2019-01-18T07:35:43.497Z,92.40
2019-01-18T07:38:12.875Z,92.40
2019-01-18T07:40:42.270Z,92.40
2019-01-18T07:43:11.632Z,92.40
2019-01-18T07:45:40.993Z,92.40
2019-01-18T07:48:10.453Z,92.30
2019-01-18T07:50:39.808Z,92.70
2019-01-18T07:53:09.374Z,92.80
2019-01-18T07:55:38.805Z,92.60
2019-01-18T07:58:08.237Z,92.40
2019-01-18T08:00:37.582Z,92.40
2019-01-18T08:03:06.872Z,92.50
2019-01-18T08:05:36.468Z,92.60
2019-01-18T08:08:06.264Z,92.60
2019-01-18T08:10:35.818Z,92.90
2019-01-18T08:13:05.364Z,92.60
2019-01-18T08:15:34.775Z,92.60
2019-01-18T08:18:04.176Z,92.50
2019-01-18T08:20:33.646Z,92.30
2019-01-18T08:23:03.378Z,92.00
2019-01-18T08:25:32.909Z,91.80
2019-01-18T08:28:03.383Z,91.80
2019-01-18T08:30:32.982Z,92.00
2019-01-18T08:33:02.507Z,92.10
2019-01-18T08:35:32.196Z,92.30
2019-01-18T08:38:02.028Z,91.90
2019-01-18T08:40:37.046Z,91.50
2019-01-18T08:43:08.735Z,91.20
2019-01-18T08:45:50.577Z,91.10
2019-01-18T08:48:20.209Z,90.90
2019-01-18T08:50:49.686Z,90.70
2019-01-18T08:53:19.042Z,90.70
2019-01-18T08:55:48.767Z,90.70
2019-01-18T08:58:18.390Z,90.80
2019-01-18T09:00:47.770Z,90.70
2019-01-18T09:03:17.180Z,90.80
2019-01-18T09:05:46.626Z,90.80
2019-01-18T09:08:16.041Z,90.80
2019-01-18T09:10:46.595Z,90.80
2019-01-18T09:13:16.055Z,90.60
2019-01-18T09:15:45.491Z,90.60
2019-01-18T09:18:15.082Z,90.80
2019-01-18T09:20:44.570Z,90.90
2019-01-18T09:23:13.995Z,90.80
2019-01-18T09:25:43.423Z,90.70
2019-01-18T09:28:12.934Z,90.60
2019-01-18T09:30:42.537Z,90.40
2019-01-18T09:33:12.111Z,90.40
2019-01-18T09:35:41.992Z,90.20
2019-01-18T09:38:17.775Z,90.00
2019-01-18T09:40:44.978Z,90.00
2019-01-18T09:43:14.434Z,88.90
2019-01-18T09:45:43.844Z,88.90
2019-01-18T09:48:13.271Z,89.00
2019-01-18T09:50:42.637Z,88.80
2019-01-18T09:53:12.702Z,88.70
2019-01-18T09:55:42.058Z,88.60
2019-01-18T09:58:11.712Z,88.50
2019-01-18T10:00:41.068Z,87.90
2019-01-18T10:03:10.481Z,87.90
2019-01-18T10:05:40.103Z,87.50
2019-01-18T10:08:13.091Z,87.30
2019-01-18T10:10:42.586Z,87.00
2019-01-18T10:13:11.989Z,86.90
2019-01-18T10:15:43.708Z,86.00
2019-01-18T10:18:13.324Z,85.50
2019-01-18T10:20:42.763Z,84.80
2019-01-18T10:23:12.231Z,85.40
2019-01-18T10:25:45.023Z,85.00
2019-01-18T10:28:14.617Z,84.50
2019-01-18T10:30:44.414Z,84.50
2019-01-18T10:33:13.871Z,84.30
2019-01-18T10:35:43.482Z,83.70
2019-01-18T10:38:12.792Z,83.70
2019-01-18T10:40:42.239Z,83.40
2019-01-18T10:43:11.686Z,83.60
2019-01-18T10:45:41.345Z,82.80
2019-01-18T10:48:10.749Z,83.00
2019-01-18T10:50:40.202Z,83.60
2019-01-18T10:53:09.613Z,84.00
2019-01-18T10:55:38.947Z,83.40
2019-01-18T10:58:08.425Z,84.10
2019-01-18T11:00:37.814Z,83.20
2019-01-18T11:03:07.410Z,83.80
2019-01-18T11:05:36.845Z,84.00
2019-01-18T11:08:06.216Z,83.70
2019-01-18T11:10:35.574Z,83.50
2019-01-18T11:13:05.123Z,82.70
2019-01-18T11:15:36.006Z,82.40
2019-01-18T11:18:05.915Z,81.30
2019-01-18T11:20:39.293Z,80.80
2019-01-18T11:23:08.805Z,79.70
2019-01-18T11:25:38.320Z,79.60
2019-01-18T11:28:07.718Z,79.90
2019-01-18T11:30:37.166Z,78.80
2019-01-18T11:33:06.629Z,79.10
2019-01-18T11:35:36.112Z,79.70
2019-01-18T11:38:05.800Z,79.50
2019-01-18T11:40:35.290Z,77.90
2019-01-18T11:43:04.900Z,77.20
2019-01-18T11:45:34.339Z,74.70
2019-01-18T11:48:03.849Z,74.10
2019-01-18T11:50:33.224Z,73.70
2019-01-18T11:53:02.642Z,72.40
2019-01-18T11:55:32.058Z,73.40
2019-01-18T11:58:01.539Z,75.10
2019-01-18T12:00:37.574Z,75.30
2019-01-18T12:03:02.152Z,76.10
2019-01-18T12:05:31.941Z,74.40
2019-01-18T12:08:01.533Z,74.10
2019-01-18T12:10:32.303Z,74.80
2019-01-18T12:13:01.845Z,74.60
2019-01-18T12:15:31.443Z,73.20
2019-01-18T12:18:00.846Z,73.50
2019-01-18T12:20:32.742Z,74.20
2019-01-18T12:23:02.243Z,73.70
2019-01-18T12:25:31.943Z,73.50
2019-01-18T12:28:01.541Z,71.50
2019-01-18T12:30:35.758Z,74.00
2019-01-18T12:33:05.465Z,73.80
2019-01-18T12:35:34.943Z,74.40
2019-01-18T12:38:04.573Z,73.20
2019-01-18T12:40:34.269Z,73.00
2019-01-18T12:43:03.766Z,72.40
2019-01-18T12:45:33.207Z,72.00
2019-01-18T12:48:02.666Z,72.60
2019-01-18T12:50:37.782Z,72.30
2019-01-18T12:53:08.688Z,72.30
2019-01-18T12:55:38.596Z,72.10
2019-01-18T12:58:08.356Z,70.70
2019-01-18T13:00:38.207Z,71.60
2019-01-18T13:03:08.752Z,72.20
2019-01-18T13:05:44.982Z,72.10
2019-01-18T13:08:14.499Z,72.40
2019-01-18T13:10:44.012Z,71.90
2019-01-18T13:13:13.521Z,71.80
2019-01-18T13:16:05.700Z,71.90
2019-01-18T13:18:35.400Z,72.00
2019-01-18T13:21:04.846Z,72.40
2019-01-18T13:23:34.785Z,72.40
2019-01-18T13:26:04.830Z,72.10
2019-01-18T13:28:34.290Z,73.00
2019-01-18T13:31:03.866Z,71.50
2019-01-18T13:33:33.276Z,71.30
2019-01-18T13:36:04.805Z,71.20
2019-01-18T13:38:34.466Z,70.40
2019-01-18T13:41:03.981Z,70.30
2019-01-18T13:43:33.682Z,70.00
2019-01-18T13:46:03.148Z,70.30
2019-01-18T13:48:32.780Z,70.30
2019-01-18T13:51:21.301Z,71.20
2019-01-18T13:53:50.844Z,71.10
2019-01-18T13:56:20.563Z,72.50
2019-01-18T13:58:50.080Z,72.30
2019-01-18T14:01:19.553Z,72.00
2019-01-18T14:03:49.426Z,71.70
2019-01-18T14:06:18.948Z,71.60
2019-01-18T14:08:48.640Z,71.60
2019-01-18T14:11:19.847Z,71.40
2019-01-18T14:13:49.478Z,71.20
2019-01-18T14:16:19.037Z,70.60
2019-01-18T14:18:48.700Z,70.60
2019-01-18T14:21:18.526Z,70.60
2019-01-18T14:23:48.134Z,70.50
2019-01-18T14:26:17.586Z,70.90
2019-01-18T14:28:48.029Z,69.80
2019-01-18T14:31:17.507Z,69.50
2019-01-18T14:33:47.049Z,69.40
2019-01-18T14:36:16.744Z,70.40
2019-01-18T14:38:46.309Z,70.90
2019-01-18T14:41:15.955Z,71.00
2019-01-18T14:43:45.508Z,71.10
2019-01-18T14:46:15.166Z,71.10
2019-01-18T14:48:44.915Z,70.50
2019-01-18T14:51:14.481Z,71.10
2019-01-18T14:53:44.214Z,71.00
2019-01-18T14:56:13.755Z,71.10
2019-01-18T14:58:43.603Z,71.40
2019-01-18T15:01:13.337Z,71.90
2019-01-18T15:03:43.056Z,72.50
2019-01-18T15:06:12.908Z,72.70
2019-01-18T15:08:42.681Z,73.10
2019-01-18T15:11:12.146Z,73.80
2019-01-18T15:13:41.591Z,73.80
2019-01-18T15:16:11.366Z,73.40
2019-01-18T15:18:41.118Z,73.40
2019-01-18T15:21:11.253Z,73.90
2019-01-18T15:23:40.871Z,74.20
2019-01-18T15:26:10.619Z,74.70
2019-01-18T15:28:40.237Z,75.40
2019-01-18T15:31:09.700Z,75.80
2019-01-18T15:33:39.258Z,77.90
2019-01-18T15:36:09.475Z,79.30
2019-01-18T15:38:39.048Z,80.40
2019-01-18T15:41:08.604Z,81.90
2019-01-18T15:43:38.221Z,83.80
2019-01-18T15:46:07.844Z,82.60
2019-01-18T15:48:37.452Z,82.50
2019-01-18T15:51:06.941Z,82.70
2019-01-18T15:53:36.566Z,83.20
2019-01-18T15:56:06.240Z,83.60
2019-01-18T15:58:35.928Z,84.20
2019-01-18T16:01:05.671Z,84.50
2019-01-18T16:03:35.306Z,84.80
2019-01-18T16:06:05.358Z,85.00
2019-01-18T16:08:35.019Z,84.90
2019-01-18T16:11:04.626Z,84.90
2019-01-18T16:13:34.141Z,85.30
2019-01-18T16:16:25.940Z,85.90
2019-01-18T16:18:56.396Z,86.10
2019-01-18T16:21:26.181Z,86.40
2019-01-18T16:23:55.866Z,86.60
2019-01-18T16:26:25.404Z,86.90
2019-01-18T16:28:54.933Z,87.10
2019-01-18T16:31:24.495Z,87.10
2019-01-18T16:33:54.262Z,87.50
2019-01-18T16:36:24.111Z,87.50
2019-01-18T16:38:53.572Z,87.60
2019-01-18T16:41:23.667Z,87.50
2019-01-18T16:43:53.169Z,87.50
2019-01-18T16:46:22.983Z,87.70
2019-01-18T16:48:52.893Z,87.80
2019-01-18T16:51:22.537Z,87.80
2019-01-18T16:53:52.083Z,88.00
2019-01-18T16:56:21.821Z,87.80
2019-01-18T16:58:51.397Z,87.80
2019-01-18T17:01:22.664Z,88.00
2019-01-18T17:03:52.512Z,88.20
2019-01-18T17:06:23.840Z,88.20
2019-01-18T17:08:56.025Z,88.40
2019-01-18T17:11:25.671Z,88.40
2019-01-18T17:13:55.338Z,88.60
2019-01-18T17:16:24.923Z,88.60
2019-01-18T17:18:54.542Z,88.70
2019-01-18T17:21:24.184Z,89.00
2019-01-18T17:23:53.945Z,89.20
2019-01-18T17:26:23.703Z,89.50
2019-01-18T17:28:53.340Z,89.70
2019-01-18T17:31:22.989Z,90.10
2019-01-18T17:33:52.706Z,90.30
2019-01-18T17:36:45.487Z,90.40
2019-01-18T17:39:37.335Z,90.40
2019-01-18T17:42:23.350Z,90.50
2019-01-18T17:45:34.181Z,90.50
2019-01-18T17:48:29.438Z,90.60
2019-01-18T17:51:46.868Z,90.60
2019-01-18T17:55:03.296Z,90.60
2019-01-18T17:57:57.493Z,90.50
2019-01-18T18:01:26.307Z,90.60
2019-01-18T18:04:21.507Z,90.60
2019-01-18T18:07:43.277Z,90.60
2019-01-18T18:10:49.363Z,90.90
2019-01-18T18:13:50.140Z,91.00
2019-01-18T18:17:00.783Z,91.20
2019-01-18T18:20:12.931Z,91.30
2019-01-18T18:23:21.367Z,91.20
2019-01-18T18:26:24.767Z,91.10
2019-01-18T18:29:25.876Z,90.90
2019-01-18T18:32:42.356Z,90.90
2019-01-18T18:35:51.853Z,90.80
2019-01-18T18:38:43.443Z,90.80
2019-01-18T18:41:41.593Z,90.70
2019-01-18T18:44:43.496Z,91.00
2019-01-18T18:47:41.369Z,91.10
2019-01-18T18:50:52.182Z,91.00
2019-01-18T18:54:09.036Z,91.10
2019-01-18T18:57:13.227Z,91.30
2019-01-18T19:00:10.841Z,91.30
2019-01-18T19:03:13.756Z,91.10
2019-01-18T19:06:58.112Z,91.00
2019-01-18T19:10:11.623Z,90.90
2019-01-18T19:13:34.052Z,90.80
2019-01-18T19:16:29.218Z,90.90
2019-01-18T19:19:35.760Z,90.80
2019-01-18T19:22:50.639Z,90.70
2019-01-18T19:26:08.039Z,90.70
2019-01-18T19:29:14.777Z,90.60
2019-01-18T19:32:31.442Z,90.60
2019-01-18T19:35:41.150Z,90.70
2019-01-18T19:39:12.846Z,90.60
2019-01-18T19:42:38.635Z,90.60
2019-01-18T19:45:48.914Z,90.60
2019-01-18T19:48:49.249Z,90.50
2019-01-18T19:52:01.893Z,90.30
2019-01-18T19:54:53.025Z,90.20
2019-01-18T19:58:08.596Z,90.30
2019-01-18T20:01:02.553Z,90.30
2019-01-18T20:03:54.941Z,90.30
2019-01-18T20:07:20.738Z,90.30
2019-01-18T20:10:12.710Z,90.30
2019-01-18T20:13:18.179Z,90.30
2019-01-18T20:16:35.006Z,90.30
2019-01-18T20:20:07.958Z,90.30
2019-01-18T20:23:39.462Z,90.30
2019-01-18T20:27:17.502Z,90.20
2019-01-18T20:30:32.383Z,90.20
2019-01-18T20:33:44.752Z,90.30
2019-01-18T20:36:45.306Z,90.00
2019-01-18T20:39:52.062Z,90.00
2019-01-18T20:43:17.648Z,90.20
2019-01-18T20:46:12.506Z,90.20
2019-01-18T20:49:28.533Z,90.20
2019-01-18T20:52:13.648Z,90.20
2019-01-18T20:55:27.963Z,90.20
2019-01-18T20:58:50.620Z,90.10
2019-01-18T21:01:58.542Z,90.10
2019-01-18T21:05:17.674Z,90.00
2019-01-18T21:08:22.828Z,90.10
2019-01-18T21:11:18.953Z,90.10
2019-01-18T21:14:11.910Z,89.80
2019-01-18T21:17:14.447Z,89.60
2019-01-18T21:20:15.758Z,89.60
2019-01-18T21:23:35.137Z,89.60
2019-01-18T21:26:43.934Z,89.50
2019-01-18T21:29:47.755Z,89.80
2019-01-18T21:32:54.497Z,89.80
2019-01-18T21:35:42.934Z,90.00
2019-01-18T21:39:21.665Z,89.60
2019-01-18T21:42:19.779Z,90.00
2019-01-18T21:45:19.882Z,89.80
2019-01-18T21:48:23.871Z,89.50
2019-01-18T21:51:33.259Z,89.60
2019-01-18T21:55:04.656Z,89.70
2019-01-18T21:57:51.423Z,90.00
2019-01-18T22:01:04.054Z,89.60
2019-01-18T22:04:22.390Z,89.40
2019-01-18T22:07:22.348Z,89.40
2019-01-18T22:10:38.155Z,89.10
2019-01-18T22:13:36.095Z,89.20
2019-01-18T22:16:53.499Z,89.20
2019-01-18T22:20:02.367Z,89.10
2019-01-18T22:23:25.186Z,89.00
2019-01-18T22:26:25.466Z,88.40
2019-01-18T22:29:31.764Z,88.60
2019-01-18T22:32:33.520Z,88.30
2019-01-18T22:35:27.615Z,88.50
2019-01-18T22:38:32.429Z,87.60
2019-01-18T22:41:33.577Z,87.50
2019-01-18T22:44:42.989Z,87.20
2019-01-18T22:47:39.112Z,87.50
2019-01-18T22:50:45.487Z,87.60
2019-01-18T22:54:07.839Z,87.50
2019-01-18T22:57:09.608Z,87.40
2019-01-18T22:59:57.017Z,87.40
2019-01-18T23:02:35.736Z,87.70
2019-01-18T23:05:45.176Z,87.50
2019-01-18T23:08:52.051Z,87.50
2019-01-18T23:11:38.072Z,87.20
2019-01-18T23:14:52.082Z,87.20
2019-01-18T23:18:02.025Z,87.30
2019-01-18T23:21:33.774Z,87.30
2019-01-18T23:24:14.811Z,87.40
2019-01-18T23:27:22.837Z,87.30
2019-01-18T23:30:47.614Z,87.50
2019-01-18T23:33:47.778Z,86.60
2019-01-18T23:36:51.655Z,86.40
2019-01-18T23:39:57.325Z,86.80
2019-01-18T23:42:58.543Z,86.50
2019-01-18T23:45:54.055Z,87.10
2019-01-18T23:49:06.826Z,87.20
2019-01-18T23:52:10.928Z,87.50
2019-01-18T23:55:16.918Z,87.30
2019-01-18T23:58:09.612Z,86.70
